Time;durP1;ratioP1;P1;durP2;ratioP2;P2;SDS_P1;SDS_P2;PMS_P1;PMS_P2;Temp;Humidity;BMP_temperature;BMP_pressure;BME280_temperature;BME280_humidity;BME280_pressure;Samples;Min_cycle;Max_cycle;Signal;HPM_P1;HPM_P2
2021/10/16 00:00:49;;;;;;;0.88;0.75;;;;;;;9.38;87.96;99747.44;2327151;69;20147;-80
2021/10/16 00:03:52;;;;;;;1.11;0.74;;;;;;;9.31;88.16;99745.63;2342803;68;20241;-80
2021/10/16 00:06:55;;;;;;;2.36;0.90;;;;;;;9.27;88.36;99746.47;2334703;68;20116;-80
2021/10/16 00:09:57;;;;;;;1.20;0.60;;;;;;;9.21;88.54;99742.13;2337766;69;20127;-80
2021/10/16 00:13:00;;;;;;;3.38;0.80;;;;;;;9.19;88.80;99743.84;2342713;68;20204;-81
2021/10/16 00:16:04;;;;;;;1.96;0.80;;;;;;;9.16;89.07;99738.66;2336175;69;20152;-80
2021/10/16 00:19:07;;;;;;;1.39;0.88;;;;;;;9.15;89.30;99743.78;2332848;69;20266;-80
2021/10/16 00:22:10;;;;;;;1.31;0.70;;;;;;;9.14;89.55;99745.53;2336508;68;20107;-80
2021/10/16 00:25:13;;;;;;;0.70;0.70;;;;;;;9.13;89.51;99743.78;2352250;68;20128;-80
2021/10/16 00:28:15;;;;;;;2.66;1.21;;;;;;;9.11;89.72;99742.03;2336728;68;20128;-80
2021/10/16 00:31:18;;;;;;;1.17;0.69;;;;;;;9.05;89.77;99738.56;2337647;69;20105;-80
2021/10/16 00:34:21;;;;;;;0.94;0.70;;;;;;;9.06;89.85;99742.03;2342220;68;20369;-80
2021/10/16 00:37:24;;;;;;;2.09;0.90;;;;;;;9.01;89.88;99734.22;2326600;68;20113;-80
2021/10/16 00:40:27;;;;;;;0.90;0.77;;;;;;;8.97;89.93;99736.75;2348621;68;20133;-81
2021/10/16 00:43:30;;;;;;;1.52;0.89;;;;;;;8.97;90.02;99742.81;2353716;68;20132;-80
2021/10/16 00:46:32;;;;;;;1.16;0.86;;;;;;;8.94;90.09;99741.91;2340029;68;20292;-81
2021/10/16 00:49:35;;;;;;;2.38;0.70;;;;;;;8.93;90.04;99754.00;2338092;69;20321;-81
2021/10/16 00:52:39;;;;;;;0.77;0.76;;;;;;;8.90;90.18;99735.00;2335747;69;20271;-80
2021/10/16 00:55:42;;;;;;;0.99;0.81;;;;;;;8.87;90.15;99748.78;2342410;68;20244;-80
2021/10/16 00:58:45;;;;;;;1.79;0.80;;;;;;;8.83;90.14;99744.44;2332647;68;20249;-81
2021/10/16 01:01:48;;;;;;;1.67;0.90;;;;;;;8.75;90.00;99739.19;2340912;68;20141;-80
2021/10/16 01:04:50;;;;;;;1.63;0.86;;;;;;;8.68;89.76;99733.97;2345154;68;20390;-80
2021/10/16 01:07:53;;;;;;;1.41;0.70;;;;;;;8.58;89.57;99729.53;2334954;68;20096;-79
2021/10/16 01:10:58;;;;;;;1.85;0.80;;;;;;;8.50;89.31;99732.06;2345369;68;20284;-80
2021/10/16 01:14:05;;;;;;;2.05;0.88;;;;;;;8.38;89.21;99735.41;2355899;68;20300;-80
2021/10/16 01:21:24;;;;;;;2.80;0.70;;;;;;;8.24;89.23;99725.72;2346052;68;20270;-81
2021/10/16 01:24:29;;;;;;;0.57;0.55;;;;;;;8.10;89.00;99720.44;2338447;69;20237;-81
2021/10/16 01:27:32;;;;;;;1.92;0.90;;;;;;;8.03;88.76;99716.88;2352818;68;20292;-80
2021/10/16 01:30:35;;;;;;;2.22;0.80;;;;;;;7.96;88.55;99712.50;2335964;68;20233;-80
2021/10/16 01:33:38;;;;;;;0.77;0.77;;;;;;;7.88;88.66;99711.53;2344095;68;20248;-81
2021/10/16 01:36:42;;;;;;;1.55;0.82;;;;;;;7.76;88.70;99726.94;2358459;68;20329;-81
2021/10/16 01:39:44;;;;;;;0.80;0.80;;;;;;;7.65;88.70;99713.84;2336643;68;20345;-81
2021/10/16 01:42:52;;;;;;;4.28;0.77;;;;;;;7.49;88.91;99717.97;2341660;68;20270;-82
2021/10/16 01:45:55;;;;;;;0.88;0.70;;;;;;;7.37;89.20;99712.66;2339649;68;20256;-81
2021/10/16 01:48:58;;;;;;;1.09;0.80;;;;;;;7.34;89.88;99714.28;2349789;68;20241;-81
2021/10/16 01:52:01;;;;;;;1.24;0.88;;;;;;;7.30;90.13;99710.81;2339419;68;20296;-81
2021/10/16 01:55:04;;;;;;;2.17;1.56;;;;;;;7.25;90.14;99709.88;2348794;68;20362;-80
2021/10/16 01:58:10;;;;;;;1.30;0.94;;;;;;;7.20;89.98;99709.84;2341379;68;20274;-80
2021/10/16 02:01:13;;;;;;;1.90;0.80;;;;;;;7.14;89.75;99708.84;2350744;68;20293;-80
2021/10/16 02:04:17;;;;;;;3.29;1.00;;;;;;;7.11;89.64;99712.25;2348263;68;20343;-80
2021/10/16 02:07:22;;;;;;;1.49;1.11;;;;;;;7.07;89.74;99714.78;2349310;69;20289;-80
2021/10/16 02:10:25;;;;;;;1.64;1.06;;;;;;;7.06;90.02;99720.78;2339724;68;20285;-80
2021/10/16 02:13:27;;;;;;;1.16;1.01;;;;;;;7.05;90.15;99711.31;2346550;68;20260;-81
2021/10/16 02:16:31;;;;;;;2.17;0.90;;;;;;;7.00;90.12;99707.78;2342973;68;20320;-80
2021/10/16 02:19:34;;;;;;;0.89;0.77;;;;;;;6.98;90.06;99715.50;2353703;68;20356;-81
2021/10/16 02:22:37;;;;;;;2.26;1.44;;;;;;;6.91;89.60;99706.81;2342127;68;20288;-81
2021/10/16 02:25:41;;;;;;;1.85;0.93;;;;;;;6.85;89.34;99706.72;2337904;68;20244;-80
2021/10/16 02:28:59;;;;;;;2.94;1.33;;;;;;;6.74;88.84;99718.59;2348637;68;20244;-81
2021/10/16 02:36:42;;;;;;;1.71;1.23;;;;;;;6.66;88.82;99717.59;2333738;69;20284;-80
2021/10/16 02:45:23;;;;;;;1.49;1.26;;;;;;;6.54;89.69;99719.97;2335802;68;20318;-81
2021/10/16 02:49:33;;;;;;;2.13;1.31;;;;;;;6.55;90.11;99720.00;2334327;68;20268;-80
2021/10/16 02:54:22;;;;;;;1.42;1.20;;;;;;;6.58;90.52;99720.03;2342617;68;20276;-82
2021/10/16 02:58:38;;;;;;;1.73;1.19;;;;;;;6.64;90.96;99717.56;2356356;69;20157;-80
2021/10/16 03:03:03;;;;;;;2.71;1.39;;;;;;;6.67;91.18;99719.34;2333095;66;49493;-81
2021/10/16 03:11:18;;;;;;;2.10;1.10;;;;;;;6.85;91.47;99732.53;2351935;68;20289;-82
2021/10/16 03:15:19;;;;;;;;;;;;;;;6.90;91.73;99728.31;2360587;68;20361;-81
2021/10/16 03:27:58;;;;;;;1.67;1.10;;;;;;;7.01;91.31;99735.34;2335990;68;20161;-82
2021/10/16 03:31:00;;;;;;;2.22;1.41;;;;;;;7.01;90.97;99736.22;2345592;68;20258;-82
2021/10/16 03:34:12;;;;;;;1.99;1.35;;;;;;;7.02;90.96;99731.94;2352210;68;20316;-81
2021/10/16 03:37:36;;;;;;;2.19;1.50;;;;;;;6.99;91.00;99722.41;2339561;69;20319;-80
2021/10/16 03:44:38;;;;;;;2.60;1.75;;;;;;;6.97;91.21;99730.13;2341250;69;20278;-81
2021/10/16 03:52:44;;;;;;;2.53;1.81;;;;;;;6.94;91.28;99732.66;2346327;69;20275;-82
2021/10/16 03:56:45;;;;;;;2.05;1.85;;;;;;;6.92;91.25;99731.78;2338507;69;20267;-81
2021/10/16 04:04:52;;;;;;;2.70;1.94;;;;;;;6.90;91.44;99722.28;2343278;69;20362;-80
2021/10/16 04:13:51;;;;;;;4.32;1.98;;;;;;;6.91;91.78;99729.16;2342214;69;20353;-81
2021/10/16 04:18:36;;;;;;;2.84;2.17;;;;;;;6.86;91.90;99723.06;2352431;66;40655;-81
2021/10/16 04:22:22;;;;;;;5.82;2.31;;;;;;;6.90;92.17;99728.31;2330787;69;20146;-81
2021/10/16 04:34:50;;;;;;;2.88;2.11;;;;;;;7.01;92.23;99736.22;2345652;68;20269;-81
2021/10/16 04:38:29;;;;;;;2.64;2.21;;;;;;;6.98;92.00;99736.16;2340159;68;20344;-81
2021/10/16 04:41:57;;;;;;;2.95;2.49;;;;;;;6.96;92.07;99740.44;2339067;68;20270;-81
2021/10/16 04:45:40;;;;;;;3.88;2.64;;;;;;;6.94;91.81;99732.66;2341441;69;20241;-80
2021/10/16 04:49:10;;;;;;;5.16;3.03;;;;;;;6.90;92.05;99732.59;2352950;68;20244;-81
2021/10/16 05:01:11;;;;;;;2.45;2.25;;;;;;;6.80;91.44;99734.16;2337434;68;20347;-81
2021/10/16 07:54:37;;;;;;;7.04;3.99;;;;;;;7.96;88.09;99820.25;2305244;69;20323;-80
2021/10/16 07:57:40;;;;;;;5.45;4.04;;;;;;;8.04;87.88;99824.66;2337780;68;20292;-80
2021/10/16 08:00:43;;;;;;;5.20;3.96;;;;;;;8.08;87.69;99826.44;2340877;68;20261;-80
2021/10/16 08:03:46;;;;;;;7.15;4.36;;;;;;;8.13;87.56;99831.66;2330710;68;20307;-80
2021/10/16 08:06:49;;;;;;;7.24;4.24;;;;;;;8.14;87.69;99831.69;2328993;69;20336;-80
2021/10/16 08:09:52;;;;;;;5.04;3.90;;;;;;;8.12;87.70;99830.81;2325550;69;20494;-80
2021/10/16 08:12:55;;;;;;;7.16;4.36;;;;;;;8.22;87.92;99829.19;2332947;68;20305;-80
2021/10/16 08:15:58;;;;;;;9.00;4.26;;;;;;;8.32;88.14;99833.63;2330585;69;20292;-80
2021/10/16 08:19:02;;;;;;;8.07;4.49;;;;;;;8.44;88.05;99830.34;2332081;69;20241;-80
2021/10/16 08:22:04;;;;;;;8.54;3.88;;;;;;;8.58;88.20;99836.53;2331666;69;20303;-80
2021/10/16 08:25:09;;;;;;;6.44;4.30;;;;;;;8.90;88.30;99829.09;2338962;69;20293;-81
2021/10/16 08:28:14;;;;;;;9.64;4.26;;;;;;;9.50;87.92;99832.16;2351409;68;20329;-81
2021/10/16 08:31:17;;;;;;;5.65;3.85;;;;;;;10.27;86.44;99829.16;2341240;69;20132;-81
2021/10/16 08:34:20;;;;;;;7.60;4.06;;;;;;;11.02;83.75;99826.72;2334774;68;20112;-82
2021/10/16 08:37:24;;;;;;;8.23;2.84;;;;;;;11.65;80.92;99825.81;2341773;68;20100;-82
2021/10/16 08:41:24;;;;;;;6.56;3.16;;;;;;;12.23;78.31;99824.84;2341494;68;20120;-81
2021/10/16 08:49:21;;;;;;;6.15;2.01;;;;;;;13.25;71.88;99827.69;2325667;69;20292;-80
2021/10/16 15:52:29;;;;;;;2.79;0.50;;;;;;;13.98;71.31;99625.06;2321780;68;20121;-81
2021/10/16 15:56:46;;;;;;;3.60;0.66;;;;;;;13.85;72.00;99619.19;2312791;69;20227;-81
2021/10/16 16:00:27;;;;;;;2.19;0.61;;;;;;;13.60;72.49;99616.03;2329308;68;20634;-81
2021/10/16 16:03:46;;;;;;;1.55;0.70;;;;;;;13.53;72.94;99617.00;2327175;68;20155;-81
2021/10/16 16:07:42;;;;;;;2.35;0.51;;;;;;;13.47;73.15;99621.44;2326641;69;20251;-81
2021/10/16 16:11:06;;;;;;;1.89;0.76;;;;;;;13.34;74.31;99615.50;2319708;69;20185;-80
2021/10/16 16:14:53;;;;;;;2.04;0.75;;;;;;;13.21;75.01;99613.91;2320173;69;20243;-80
2021/10/16 16:18:22;;;;;;;0.61;0.60;;;;;;;13.04;74.68;99610.59;2325664;69;20179;-81
2021/10/16 16:21:54;;;;;;;1.42;0.70;;;;;;;12.89;74.90;99615.09;2328999;69;20187;-80
2021/10/16 16:25:16;;;;;;;1.11;0.94;;;;;;;12.67;75.70;99611.81;2327329;68;20168;-80
2021/10/16 16:28:50;;;;;;;1.04;0.60;;;;;;;12.52;76.09;99617.16;2327746;69;20274;-80
2021/10/16 16:32:12;;;;;;;1.33;0.68;;;;;;;12.32;76.60;99617.34;2313981;69;20164;-80
2021/10/16 16:35:21;;;;;;;2.76;0.70;;;;;;;12.13;77.37;99609.69;2327711;68;20185;-81
2021/10/16 16:38:32;;;;;;;2.16;1.13;;;;;;;11.92;77.53;99616.75;2328849;69;20173;-80
2021/10/16 16:41:36;;;;;;;2.30;0.79;;;;;;;11.74;77.84;99619.44;2327881;69;20177;-80
2021/10/16 16:44:39;;;;;;;1.55;0.60;;;;;;;11.58;77.99;99613.44;2326272;68;20155;-80
2021/10/16 16:47:43;;;;;;;1.27;0.70;;;;;;;11.36;78.29;99617.88;2328550;66;31874;-80
2021/10/16 16:50:46;;;;;;;2.79;1.20;;;;;;;11.15;78.61;99621.44;2331089;69;20475;-80
2021/10/16 16:53:50;;;;;;;1.21;0.84;;;;;;;11.00;79.14;99624.06;2339828;68;20156;-81
2021/10/16 16:56:53;;;;;;;1.94;0.75;;;;;;;10.86;79.34;99631.88;2327650;69;20167;-80
2021/10/16 16:59:55;;;;;;;1.08;0.70;;;;;;;10.71;79.61;99636.22;2330614;69;20586;-81
2021/10/16 17:02:59;;;;;;;2.58;0.81;;;;;;;10.54;80.14;99638.84;2315196;67;35750;-81
2021/10/16 17:06:02;;;;;;;4.65;1.14;;;;;;;10.37;80.53;99641.44;2319595;69;20275;-80
2021/10/16 17:09:07;;;;;;;2.72;0.90;;;;;;;10.20;81.10;99649.16;2317161;69;20145;-81
2021/10/16 17:12:10;;;;;;;4.70;0.90;;;;;;;10.10;81.53;99650.03;2313554;69;20334;-81
2021/10/16 17:15:13;;;;;;;0.96;0.65;;;;;;;9.99;81.85;99652.59;2319608;69;20137;-81
2021/10/16 17:18:16;;;;;;;1.30;0.60;;;;;;;9.88;81.74;99654.31;2321946;69;20211;-81
2021/10/16 17:21:19;;;;;;;0.82;0.60;;;;;;;9.79;82.18;99656.00;2311075;69;20137;-81
2021/10/16 17:24:22;;;;;;;1.38;0.60;;;;;;;9.71;82.47;99661.19;2311546;69;20246;-80
2021/10/16 17:27:45;;;;;;;1.46;0.73;;;;;;;9.62;82.95;99655.94;2311203;69;20179;-80
2021/10/16 17:30:48;;;;;;;2.14;0.64;;;;;;;9.50;83.29;99659.34;2309207;69;20219;-80
2021/10/16 17:33:51;;;;;;;1.04;0.60;;;;;;;9.43;83.62;99661.91;2308886;69;20291;-80
2021/10/16 17:36:55;;;;;;;1.58;0.70;;;;;;;9.33;83.87;99664.44;2313126;69;20177;-80
2021/10/16 17:39:58;;;;;;;2.47;0.80;;;;;;;9.26;83.98;99662.69;2313018;69;20249;-80
2021/10/16 17:43:01;;;;;;;1.65;0.89;;;;;;;9.17;84.23;99672.16;2313450;69;20286;-80
2021/10/16 17:46:03;;;;;;;1.30;0.70;;;;;;;9.11;84.50;99677.28;2315221;69;20181;-80
2021/10/16 17:49:07;;;;;;;1.80;0.70;;;;;;;9.02;84.78;99680.69;2314518;69;20606;-81
2021/10/16 17:52:09;;;;;;;1.44;0.73;;;;;;;8.97;85.02;99680.66;2313962;69;20153;-80
2021/10/16 17:55:18;;;;;;;0.76;0.76;;;;;;;8.93;85.36;99681.50;2315307;69;20157;-80
2021/10/16 17:58:20;;;;;;;0.78;0.78;;;;;;;8.89;85.43;99682.34;2309464;69;20165;-80
2021/10/16 18:01:23;;;;;;;0.85;0.70;;;;;;;8.87;85.60;99684.06;2312484;67;25957;-80
2021/10/16 18:04:26;;;;;;;0.96;0.79;;;;;;;8.85;85.90;99687.50;2318358;69;20157;-80
2021/10/16 18:07:28;;;;;;;0.80;0.80;;;;;;;8.82;86.27;99688.34;2315339;69;20256;-81
2021/10/16 18:10:32;;;;;;;0.96;0.80;;;;;;;8.80;86.49;99692.63;2319227;69;20281;-81
2021/10/16 18:13:36;;;;;;;3.05;0.80;;;;;;;8.82;86.88;99697.84;2321665;69;20160;-81
2021/10/16 18:16:38;;;;;;;1.41;0.84;;;;;;;8.83;87.08;99697.84;2320119;66;71555;-81
2021/10/16 18:19:49;;;;;;;2.13;0.80;;;;;;;8.86;87.11;99703.03;2313870;69;20297;-81
2021/10/16 18:22:52;;;;;;;2.05;1.38;;;;;;;8.83;87.01;99700.44;2316874;69;20815;-81
2021/10/16 18:25:54;;;;;;;1.50;0.90;;;;;;;8.85;87.13;99700.44;2321233;69;20357;-81
2021/10/16 18:28:57;;;;;;;1.69;1.06;;;;;;;8.84;87.20;99704.75;2322499;69;20310;-81
2021/10/16 18:32:00;;;;;;;1.29;0.69;;;;;;;8.88;87.41;99709.09;2320563;69;20144;-81
2021/10/16 18:35:04;;;;;;;0.96;0.90;;;;;;;8.88;87.60;99710.81;2315572;69;20176;-81
2021/10/16 18:38:07;;;;;;;2.21;0.99;;;;;;;8.86;87.86;99713.38;2324554;69;20152;-81
2021/10/16 18:41:10;;;;;;;1.10;1.00;;;;;;;8.92;88.10;99712.56;2323762;69;20437;-81
2021/10/16 18:44:13;;;;;;;1.83;1.24;;;;;;;8.93;88.12;99706.53;2322528;69;20222;-81
2021/10/16 18:47:15;;;;;;;1.00;0.90;;;;;;;8.94;88.13;99701.34;2316206;66;30688;-81
2021/10/16 18:50:18;;;;;;;1.70;0.95;;;;;;;8.95;88.11;99699.63;2321939;69;20293;-81
2021/10/16 18:53:21;;;;;;;1.55;1.00;;;;;;;8.94;88.03;99701.34;2322696;69;20994;-80
2021/10/16 18:56:25;;;;;;;1.10;1.00;;;;;;;8.88;87.80;99705.63;2323622;69;20508;-81
2021/10/16 18:59:28;;;;;;;0.86;0.71;;;;;;;8.81;87.66;99704.72;2321126;69;20288;-81
2021/10/16 19:02:30;;;;;;;1.80;0.96;;;;;;;8.72;87.51;99708.09;2315735;66;30757;-81
2021/10/16 19:05:34;;;;;;;2.29;1.02;;;;;;;8.65;87.45;99708.06;2320575;69;20978;-81
2021/10/16 19:08:36;;;;;;;1.67;1.17;;;;;;;8.57;87.37;99707.97;2320998;69;20239;-81
2021/10/16 19:11:39;;;;;;;2.45;1.30;;;;;;;8.50;87.30;99706.19;2315660;69;20285;-81
2021/10/16 19:14:42;;;;;;;1.31;1.21;;;;;;;8.43;87.34;99701.78;2316536;69;20966;-81
2021/10/16 19:17:45;;;;;;;1.33;1.00;;;;;;;8.37;87.38;99697.44;2322730;66;29806;-81
2021/10/16 19:20:47;;;;;;;1.31;1.21;;;;;;;8.28;87.33;99701.66;2316482;69;20301;-81
2021/10/16 19:23:51;;;;;;;2.55;1.36;;;;;;;8.18;87.31;99698.09;2317088;69;20362;-81
2021/10/16 19:26:55;;;;;;;2.86;1.96;;;;;;;8.07;87.18;99695.38;2320407;69;20379;-81
2021/10/16 19:29:59;;;;;;;2.54;1.95;;;;;;;7.99;86.94;99697.03;2315246;69;20974;-81
2021/10/16 19:33:01;;;;;;;3.76;1.71;;;;;;;7.91;86.74;99687.47;2315350;66;31928;-81
2021/10/16 19:36:04;;;;;;;3.94;1.89;;;;;;;7.83;86.83;99684.78;2323836;69;20343;-81
2021/10/16 19:39:07;;;;;;;4.25;1.70;;;;;;;7.78;87.13;99687.31;2324784;69;20297;-81
2021/10/16 19:42:10;;;;;;;2.31;1.85;;;;;;;7.71;87.24;99690.66;2325887;69;20444;-81
2021/10/16 19:45:15;;;;;;;1.86;1.60;;;;;;;7.65;87.67;99698.34;2324444;69;21032;-81
2021/10/16 19:48:18;;;;;;;2.35;1.99;;;;;;;7.62;88.19;99703.50;2318039;66;26990;-81
2021/10/16 19:51:21;;;;;;;2.10;1.90;;;;;;;7.61;88.54;99700.88;2321536;69;20285;-81
2021/10/16 19:54:24;;;;;;;3.05;2.75;;;;;;;7.57;88.80;99700.84;2320523;69;21160;-81
2021/10/16 19:57:29;;;;;;;2.04;1.79;;;;;;;7.52;88.77;99712.81;2324719;69;20301;-81
2021/10/16 20:00:31;;;;;;;2.10;1.96;;;;;;;7.46;88.66;99705.00;2320616;66;29192;-81
2021/10/16 20:03:35;;;;;;;2.80;1.84;;;;;;;7.47;88.86;99703.28;2329361;68;20332;-81
2021/10/16 20:06:41;;;;;;;2.96;2.13;;;;;;;7.44;88.95;99711.88;2325216;68;20768;-81
2021/10/16 20:09:44;;;;;;;2.58;1.63;;;;;;;7.45;89.35;99708.44;2331424;69;20287;-82
2021/10/16 20:12:47;;;;;;;5.88;2.03;;;;;;;7.46;89.50;99709.31;2330463;69;20296;-81
2021/10/16 20:15:50;;;;;;;2.55;2.33;;;;;;;7.46;89.68;99705.00;2327444;69;20288;-81
2021/10/16 20:18:53;;;;;;;4.13;2.04;;;;;;;7.47;89.68;99703.28;2329189;69;20264;-81
2021/10/16 20:21:56;;;;;;;2.28;1.61;;;;;;;7.49;89.53;99706.75;2323067;69;20311;-81
2021/10/16 20:25:00;;;;;;;2.53;1.92;;;;;;;7.49;89.44;99712.78;2323691;69;20310;-80
2021/10/16 20:28:05;;;;;;;1.86;1.76;;;;;;;7.52;89.35;99709.38;2329532;69;20388;-81
2021/10/16 20:31:08;;;;;;;3.65;1.88;;;;;;;7.52;89.58;99714.53;2328508;69;20304;-81
2021/10/16 20:34:12;;;;;;;4.34;2.03;;;;;;;7.57;89.81;99710.31;2327171;68;20402;-81
2021/10/16 20:37:15;;;;;;;2.34;1.56;;;;;;;7.60;89.89;99707.78;2329636;69;20587;-81
2021/10/16 20:40:18;;;;;;;4.03;2.00;;;;;;;7.62;89.81;99705.19;2344138;68;20279;-82
2021/10/16 20:43:21;;;;;;;2.21;1.70;;;;;;;7.61;89.57;99706.06;2337409;68;20321;-81
2021/10/16 20:46:25;;;;;;;2.31;2.14;;;;;;;7.56;89.32;99704.28;2332020;69;20315;-81
2021/10/16 20:49:29;;;;;;;2.13;1.84;;;;;;;7.52;88.90;99709.38;2329653;69;21129;-81
2021/10/16 20:52:32;;;;;;;2.21;2.01;;;;;;;7.44;88.62;99709.28;2324543;69;20284;-81
2021/10/16 20:55:34;;;;;;;2.21;1.55;;;;;;;7.39;88.20;99704.91;2329075;68;20359;-80
2021/10/16 20:58:37;;;;;;;1.90;1.77;;;;;;;7.32;87.83;99708.25;2328709;69;20306;-81
2021/10/16 21:01:41;;;;;;;2.03;1.80;;;;;;;7.21;87.44;99702.94;2327826;66;32157;-81
2021/10/16 21:05:18;;;;;;;3.14;2.50;;;;;;;7.16;87.19;99705.44;2330030;68;20313;-82
2021/10/16 21:09:01;;;;;;;4.53;3.36;;;;;;;7.08;87.00;99701.91;2333595;69;20330;-81
2021/10/16 21:12:27;;;;;;;6.64;3.81;;;;;;;7.00;87.04;99700.03;2328251;69;20429;-80
2021/10/16 21:15:52;;;;;;;14.14;7.56;;;;;;;6.93;87.28;99699.09;2327909;66;30787;-81
2021/10/16 21:19:26;;;;;;;12.07;5.91;;;;;;;6.84;87.10;99686.94;2325759;69;20264;-81
2021/10/16 21:22:50;;;;;;;9.77;6.53;;;;;;;6.77;87.02;99690.22;2329029;69;20284;-81
2021/10/16 21:26:34;;;;;;;8.59;5.45;;;;;;;6.69;86.92;99693.56;2325329;69;20305;-81
2021/10/16 21:30:15;;;;;;;6.04;3.88;;;;;;;6.61;86.82;99693.41;2331941;69;20312;-80
2021/10/16 21:33:31;;;;;;;5.18;3.51;;;;;;;6.57;87.05;99694.22;2332239;68;20503;-81
2021/10/16 21:36:34;;;;;;;3.83;3.53;;;;;;;6.52;87.50;99695.84;2311513;69;20486;-81
2021/10/16 21:39:52;;;;;;;5.16;3.46;;;;;;;6.50;87.99;99693.25;2320545;69;20669;-81
2021/10/16 21:43:02;;;;;;;3.75;3.03;;;;;;;6.49;88.06;99696.69;2326872;68;20354;-80
2021/10/16 21:46:12;;;;;;;3.36;3.06;;;;;;;6.42;88.03;99701.69;2327385;68;20773;-81
2021/10/16 21:49:25;;;;;;;3.33;3.03;;;;;;;6.40;88.30;99701.66;2327552;69;20305;-80
2021/10/16 21:52:38;;;;;;;5.57;3.55;;;;;;;6.37;88.27;99701.63;2328472;68;20317;-81
2021/10/16 21:56:32;;;;;;;3.81;3.11;;;;;;;6.35;88.25;99700.72;2328054;69;20960;-81
2021/10/16 21:59:51;;;;;;;3.50;3.08;;;;;;;6.31;88.38;99710.13;2327112;68;20414;-81
2021/10/16 22:03:44;;;;;;;4.26;3.49;;;;;;;6.27;88.46;99705.72;2329731;66;36825;-81
2021/10/16 22:07:31;;;;;;;5.51;3.94;;;;;;;6.21;88.62;99702.19;2330474;69;20177;-81
2021/10/16 22:10:43;;;;;;;4.72;3.56;;;;;;;6.18;88.82;99699.56;2327104;69;20288;-81
2021/10/16 22:14:00;;;;;;;7.44;4.79;;;;;;;6.14;88.56;99705.50;2326449;68;21129;-81
2021/10/16 22:17:15;;;;;;;4.66;4.09;;;;;;;6.09;88.71;99704.53;2325813;66;39897;-81
2021/10/16 22:20:36;;;;;;;5.89;4.99;;;;;;;6.05;88.95;99707.06;2329563;69;20303;-81
2021/10/16 22:24:05;;;;;;;5.24;4.72;;;;;;;6.01;88.89;99709.56;2328238;68;20730;-81
2021/10/16 22:27:42;;;;;;;6.96;4.19;;;;;;;5.95;88.96;99706.88;2326760;69;20312;-81
2021/10/16 22:31:02;;;;;;;4.43;4.03;;;;;;;5.90;88.96;99709.34;2314871;69;991224;-81
2021/10/16 22:34:14;;;;;;;4.81;4.38;;;;;;;5.88;88.79;99711.00;2319374;69;20289;-81
2021/10/16 22:37:26;;;;;;;5.38;4.40;;;;;;;5.85;88.54;99708.34;2322249;69;20296;-81
2021/10/16 22:40:31;;;;;;;5.46;4.30;;;;;;;5.80;88.63;99715.13;2322574;69;20794;-81
2021/10/16 22:43:37;;;;;;;7.00;5.69;;;;;;;5.78;88.89;99710.81;2319588;68;20317;-81
2021/10/16 22:46:47;;;;;;;6.60;5.64;;;;;;;5.75;88.96;99709.91;2323805;69;20299;-81
2021/10/16 22:50:22;;;;;;;7.14;5.35;;;;;;;5.72;88.99;99714.09;2329718;69;20367;-81
2021/10/16 22:53:49;;;;;;;5.59;4.84;;;;;;;5.68;88.94;99712.31;2336509;68;20356;-81
2021/10/16 22:57:07;;;;;;;7.21;4.91;;;;;;;5.63;88.83;99711.34;2324226;69;20327;-81
2021/10/16 23:00:23;;;;;;;7.39;4.55;;;;;;;5.61;89.00;99708.75;2329551;69;20319;-81
2021/10/16 23:03:31;;;;;;;6.51;5.15;;;;;;;5.62;89.35;99709.63;2331356;68;20311;-81
2021/10/16 23:06:42;;;;;;;7.49;6.50;;;;;;;5.71;89.96;99709.78;2329672;69;20323;-81
2021/10/16 23:09:49;;;;;;;11.16;6.89;;;;;;;5.79;90.52;99713.41;2323904;69;20301;-81
2021/10/16 23:13:19;;;;;;;8.98;6.97;;;;;;;5.90;91.02;99709.34;2333683;68;20418;-82
2021/10/16 23:16:57;;;;;;;13.27;7.43;;;;;;;6.00;91.26;99716.41;2330155;66;44031;-81
2021/10/16 23:20:32;;;;;;;12.57;8.24;;;;;;;6.07;91.58;99702.78;2326305;69;20285;-81
2021/10/16 23:24:13;;;;;;;14.05;7.96;;;;;;;6.17;91.83;99716.75;2322250;68;20295;-81
2021/10/16 23:27:45;;;;;;;14.49;9.24;;;;;;;6.28;92.23;99720.41;2331466;69;20300;-81
2021/10/16 23:31:18;;;;;;;14.29;8.94;;;;;;;6.35;92.32;99716.19;2335662;68;20496;-81
2021/10/16 23:34:28;;;;;;;12.65;9.04;;;;;;;6.43;92.45;99722.34;2318988;68;20304;-81
2021/10/16 23:41:53;;;;;;;10.18;8.49;;;;;;;6.58;92.65;99722.63;2327889;68;20284;-81
2021/10/16 23:45:31;;;;;;;12.21;8.32;;;;;;;6.72;92.36;99727.16;2328081;68;20383;-81
2021/10/16 23:49:15;;;;;;;12.54;8.32;;;;;;;6.79;92.38;99728.97;2328475;69;20284;-81
2021/10/16 23:52:32;;;;;;;11.99;8.79;;;;;;;6.86;92.15;99720.50;2323084;69;20418;-81
2021/10/16 23:56:11;;;;;;;10.40;7.91;;;;;;;6.95;92.05;99724.06;2327266;69;20408;-81
2021/10/16 23:59:39;;;;;;;14.27;7.97;;;;;;;7.05;91.75;99724.22;2325988;69;20304;-80
